createdAt,value
2022-11-17T00:01:47.094Z,30.10
2022-11-17T00:04:16.058Z,36.50
2022-11-17T00:06:45.513Z,32.45
2022-11-17T00:09:17.651Z,37.92
2022-11-17T00:12:05.920Z,31.88
2022-11-17T00:14:40.529Z,35.53
2022-11-17T00:17:11.457Z,29.75
2022-11-17T00:19:58.171Z,29.00
2022-11-17T00:22:26.324Z,34.20
2022-11-17T00:24:54.143Z,34.30
2022-11-17T00:27:21.559Z,31.45
2022-11-17T00:29:49.839Z,34.97
2022-11-17T00:32:38.111Z,29.27
2022-11-17T00:35:06.854Z,31.20
2022-11-17T00:37:38.791Z,34.35
2022-11-17T00:40:07.380Z,31.98
2022-11-17T00:42:34.757Z,29.17
2022-11-17T00:45:02.500Z,37.33
2022-11-17T00:47:29.934Z,26.73
2022-11-17T00:49:57.677Z,25.27
2022-11-17T00:52:25.075Z,25.45
2022-11-17T00:54:52.837Z,20.77
2022-11-17T00:57:20.283Z,23.27
2022-11-17T00:59:48.020Z,21.15
2022-11-17T01:02:15.531Z,13.88
2022-11-17T01:04:43.454Z,17.15
2022-11-17T01:07:10.905Z,18.52
2022-11-17T01:09:38.709Z,13.38
2022-11-17T01:12:06.499Z,15.38
2022-11-17T01:14:34.409Z,14.00
2022-11-17T01:17:01.856Z,14.27
2022-11-17T01:19:29.689Z,14.90
2022-11-17T01:21:57.088Z,12.85
2022-11-17T01:24:24.928Z,14.70
2022-11-17T01:26:52.509Z,13.38
2022-11-17T01:29:20.266Z,19.17
2022-11-17T01:31:51.596Z,16.70
2022-11-17T01:34:19.549Z,17.45
2022-11-17T01:37:05.383Z,14.95
2022-11-17T01:39:33.182Z,15.45
2022-11-17T01:42:14.097Z,14.05
2022-11-17T01:45:11.444Z,14.30
2022-11-17T01:48:00.291Z,13.75
2022-11-17T01:50:39.127Z,14.55
2022-11-17T01:53:16.413Z,13.17
2022-11-17T01:55:59.856Z,13.00
2022-11-17T01:58:36.571Z,13.30
2022-11-17T02:01:04.545Z,13.68
2022-11-17T02:03:34.725Z,16.60
2022-11-17T02:06:13.680Z,13.80
2022-11-17T02:08:46.136Z,14.70
2022-11-17T02:11:18.185Z,14.40
2022-11-17T02:13:46.290Z,13.82
2022-11-17T02:16:16.201Z,13.48
2022-11-17T02:18:45.588Z,12.70
2022-11-17T02:21:51.995Z,10.75
2022-11-17T02:24:31.149Z,9.75
2022-11-17T02:30:12.324Z,3.85
2022-11-17T02:33:02.609Z,3.90
2022-11-17T02:35:50.032Z,3.25
2022-11-17T02:38:43.432Z,2.45
2022-11-17T02:41:27.874Z,2.22
2022-11-17T02:44:14.642Z,3.00
2022-11-17T02:46:58.785Z,0.85
2022-11-17T02:49:37.002Z,2.38
2022-11-17T02:52:06.373Z,2.05
2022-11-17T02:54:34.374Z,1.10
2022-11-17T02:57:01.975Z,1.20
2022-11-17T02:59:46.351Z,3.15
2022-11-17T03:02:44.155Z,0.82
2022-11-17T03:05:50.038Z,2.60
2022-11-17T03:08:41.022Z,1.92
2022-11-17T03:11:10.875Z,4.13
2022-11-17T03:13:56.697Z,4.18
2022-11-17T03:16:38.430Z,2.13
2022-11-17T03:19:24.672Z,2.17
2022-11-17T03:22:12.592Z,2.13
2022-11-17T03:24:55.086Z,5.63
2022-11-17T03:27:30.792Z,2.33
2022-11-17T03:30:06.374Z,2.38
2022-11-17T03:32:39.460Z,2.67
2022-11-17T03:35:18.120Z,3.00
2022-11-17T03:37:54.805Z,4.13
2022-11-17T03:40:27.891Z,5.13
2022-11-17T03:43:02.742Z,6.25
2022-11-17T03:45:39.904Z,6.93
2022-11-17T03:48:22.959Z,9.05
2022-11-17T03:51:09.327Z,7.20
2022-11-17T03:53:38.207Z,9.18
2022-11-17T03:56:46.266Z,7.93
2022-11-17T03:59:30.671Z,8.52
2022-11-17T04:01:58.883Z,10.60
2022-11-17T04:04:47.471Z,10.33
2022-11-17T04:07:41.434Z,14.88
2022-11-17T04:10:18.460Z,10.93
2022-11-17T04:13:06.306Z,11.68
2022-11-17T04:15:52.865Z,9.95
2022-11-17T04:18:22.841Z,9.68
2022-11-17T04:20:53.399Z,10.38
2022-11-17T04:23:21.512Z,13.57
2022-11-17T04:26:14.303Z,13.13
2022-11-17T04:28:48.896Z,11.30
2022-11-17T04:31:24.967Z,11.65
2022-11-17T04:34:04.421Z,14.10
2022-11-17T04:36:45.676Z,11.35
2022-11-17T04:39:15.473Z,12.35
2022-11-17T04:41:57.571Z,11.95
2022-11-17T04:44:30.556Z,14.13
2022-11-17T04:46:59.527Z,12.57
2022-11-17T04:49:27.217Z,14.55
2022-11-17T04:51:55.243Z,12.70
2022-11-17T04:54:24.801Z,17.17
2022-11-17T04:56:57.553Z,15.75
2022-11-17T04:59:30.891Z,15.82
2022-11-17T05:02:04.170Z,12.90
2022-11-17T05:04:51.970Z,12.88
2022-11-17T05:07:19.822Z,13.52
2022-11-17T05:10:06.741Z,10.93
2022-11-17T05:12:53.238Z,13.45
2022-11-17T05:15:40.782Z,10.95
2022-11-17T05:18:08.591Z,12.80
2022-11-17T05:20:35.999Z,14.10
2022-11-17T05:23:22.448Z,17.02
2022-11-17T05:25:54.045Z,13.65
2022-11-17T05:28:21.866Z,12.35
2022-11-17T05:30:49.384Z,12.48
2022-11-17T05:33:17.250Z,15.75
2022-11-17T05:35:44.665Z,12.88
2022-11-17T05:38:12.481Z,15.32
2022-11-17T05:40:39.925Z,14.45
2022-11-17T05:43:07.678Z,14.48
2022-11-17T05:45:35.197Z,13.10
2022-11-17T05:48:03.115Z,13.48
2022-11-17T05:50:30.504Z,15.60
2022-11-17T05:53:02.204Z,18.58
2022-11-17T05:55:29.720Z,22.30
2022-11-17T05:58:12.193Z,19.88
2022-11-17T06:00:41.344Z,20.70
2022-11-17T06:03:23.409Z,25.80
2022-11-17T06:05:52.664Z,25.30
2022-11-17T06:08:20.712Z,23.05
2022-11-17T06:10:48.211Z,25.67
2022-11-17T06:13:16.043Z,25.13
2022-11-17T06:15:43.507Z,31.45
2022-11-17T06:18:17.351Z,28.95
2022-11-17T06:20:51.833Z,28.58
2022-11-17T06:23:22.816Z,31.13
2022-11-17T06:25:50.560Z,34.13
2022-11-17T06:28:22.143Z,40.10
2022-11-17T06:30:50.154Z,36.92
2022-11-17T06:33:19.321Z,33.33
2022-11-17T06:35:48.149Z,34.55
2022-11-17T06:38:15.993Z,34.10
2022-11-17T06:40:43.577Z,46.40
2022-11-17T06:43:11.605Z,31.73
2022-11-17T06:45:44.446Z,39.20
2022-11-17T06:48:16.215Z,32.47
2022-11-17T06:50:44.561Z,33.00
2022-11-17T06:53:13.185Z,36.85
2022-11-17T06:55:41.885Z,35.13
2022-11-17T06:58:13.052Z,37.72
2022-11-17T07:00:40.710Z,36.72
2022-11-17T07:03:10.675Z,35.13
2022-11-17T07:05:40.257Z,31.38
2022-11-17T07:08:09.868Z,31.15
2022-11-17T07:10:38.474Z,28.13
2022-11-17T07:13:06.387Z,29.05
2022-11-17T07:15:33.937Z,26.55
2022-11-17T07:18:01.847Z,23.38
2022-11-17T07:20:29.416Z,27.83
2022-11-17T07:23:00.412Z,26.17
2022-11-17T07:25:28.417Z,21.75
2022-11-17T07:28:00.063Z,22.67
2022-11-17T07:30:27.713Z,24.83
2022-11-17T07:32:55.634Z,23.05
2022-11-17T07:35:23.121Z,22.48
2022-11-17T07:37:51.045Z,23.58
2022-11-17T07:40:18.693Z,23.17
2022-11-17T07:42:50.112Z,26.90
2022-11-17T07:45:18.213Z,25.85
2022-11-17T07:47:52.494Z,26.65
2022-11-17T07:50:20.270Z,20.30
2022-11-17T07:52:52.228Z,24.38
2022-11-17T07:55:20.321Z,21.23
2022-11-17T07:57:53.930Z,22.67
2022-11-17T08:00:21.673Z,19.33
2022-11-17T08:02:49.750Z,21.45
2022-11-17T08:05:18.362Z,22.92
2022-11-17T08:07:54.078Z,20.25
2022-11-17T08:10:22.252Z,19.95
2022-11-17T08:12:56.123Z,23.60
2022-11-17T08:15:23.662Z,19.83
2022-11-17T08:17:57.048Z,17.70
2022-11-17T08:20:26.830Z,20.13
2022-11-17T08:22:56.485Z,18.65
2022-11-17T08:25:26.931Z,23.45
2022-11-17T08:27:58.656Z,23.60
2022-11-17T08:30:27.159Z,22.13
2022-11-17T08:32:55.352Z,18.95
2022-11-17T08:35:25.476Z,19.77
2022-11-17T08:37:54.387Z,18.20
2022-11-17T08:40:22.200Z,19.23
2022-11-17T08:43:00.923Z,23.38
2022-11-17T08:45:28.970Z,24.40
2022-11-17T08:47:57.303Z,16.75
2022-11-17T08:50:25.843Z,19.58
2022-11-17T08:52:53.941Z,24.73
2022-11-17T08:55:21.553Z,19.13
2022-11-17T08:57:49.449Z,19.73
2022-11-17T09:00:19.904Z,20.13
2022-11-17T09:02:47.995Z,22.00
2022-11-17T09:05:15.569Z,15.85
2022-11-17T09:07:43.545Z,16.63
2022-11-17T09:10:11.350Z,18.92
2022-11-17T09:12:39.219Z,15.90
2022-11-17T09:15:07.319Z,19.92
2022-11-17T09:17:35.947Z,21.98
2022-11-17T09:20:03.561Z,19.00
2022-11-17T09:22:49.962Z,20.05
2022-11-17T09:25:17.714Z,28.52
2022-11-17T09:27:45.520Z,24.73
2022-11-17T09:30:13.305Z,28.75
2022-11-17T09:32:41.043Z,30.55
2022-11-17T09:35:09.501Z,24.10
2022-11-17T09:37:37.348Z,25.45
2022-11-17T09:40:05.745Z,27.33
2022-11-17T09:42:40.206Z,19.45
2022-11-17T09:45:39.435Z,23.17
2022-11-17T09:48:40.361Z,21.77
2022-11-17T09:51:13.858Z,24.20
2022-11-17T09:54:49.977Z,25.13
2022-11-17T09:57:54.824Z,27.10
2022-11-17T10:00:24.367Z,23.15
2022-11-17T10:02:54.221Z,20.08
2022-11-17T10:05:40.180Z,19.35
2022-11-17T10:08:13.198Z,22.73
2022-11-17T10:10:51.771Z,17.92
2022-11-17T10:13:36.510Z,14.75
2022-11-17T10:16:13.311Z,18.08
2022-11-17T10:18:40.942Z,21.33
2022-11-17T10:21:09.357Z,17.90
2022-11-17T10:23:46.876Z,19.17
2022-11-17T10:26:16.609Z,20.60
2022-11-17T10:28:44.381Z,22.33
2022-11-17T10:31:18.825Z,20.73
2022-11-17T10:33:50.346Z,22.95
2022-11-17T10:36:30.554Z,22.70
2022-11-17T10:39:00.527Z,21.35
2022-11-17T10:41:42.834Z,24.58
2022-11-17T10:44:23.536Z,19.00
2022-11-17T10:47:08.067Z,22.52
2022-11-17T10:49:40.866Z,20.40
2022-11-17T10:52:19.167Z,19.25
2022-11-17T10:54:46.810Z,21.70
2022-11-17T10:57:23.709Z,17.13
2022-11-17T10:59:57.635Z,16.33
2022-11-17T11:02:36.804Z,17.90
2022-11-17T11:05:17.952Z,20.03
2022-11-17T11:08:33.433Z,15.43
2022-11-17T11:11:44.152Z,19.35
2022-11-17T11:14:42.169Z,17.90
2022-11-17T11:17:14.210Z,16.13
2022-11-17T11:19:46.006Z,18.92
2022-11-17T11:22:57.867Z,15.50
2022-11-17T11:25:41.178Z,16.90
2022-11-17T11:28:48.101Z,19.75
2022-11-17T11:31:44.171Z,20.30
2022-11-17T11:34:44.002Z,18.73
2022-11-17T11:37:14.457Z,16.58
2022-11-17T11:42:58.943Z,14.38
2022-11-17T11:45:58.901Z,20.73
2022-11-17T11:48:36.523Z,16.92
2022-11-17T11:51:35.227Z,16.02
2022-11-17T11:54:25.877Z,19.30
2022-11-17T11:56:54.873Z,18.65
2022-11-17T11:59:50.651Z,19.25
2022-11-17T12:03:01.876Z,14.57
2022-11-17T12:05:51.405Z,15.63
2022-11-17T12:08:45.355Z,12.57
2022-11-17T12:11:34.911Z,13.38
2022-11-17T12:14:06.183Z,11.30
2022-11-17T12:16:36.247Z,12.90
2022-11-17T12:19:51.065Z,11.88
2022-11-17T12:22:30.510Z,11.93
2022-11-17T12:25:33.450Z,14.95
2022-11-17T12:28:38.311Z,10.13
2022-11-17T12:31:25.977Z,12.10
2022-11-17T12:33:53.294Z,12.30
2022-11-17T12:36:30.409Z,10.85
2022-11-17T12:39:07.080Z,14.27
2022-11-17T12:41:49.878Z,14.38
2022-11-17T12:44:38.622Z,11.95
2022-11-17T12:47:20.880Z,10.98
2022-11-17T12:50:35.179Z,8.73
2022-11-17T12:53:26.615Z,8.60
2022-11-17T12:56:23.718Z,15.82
2022-11-17T12:59:24.158Z,14.73
2022-11-17T13:02:20.783Z,14.48
2022-11-17T13:05:18.865Z,11.18
2022-11-17T13:07:46.448Z,9.85
2022-11-17T13:10:30.641Z,17.70
2022-11-17T13:13:25.101Z,12.73
2022-11-17T13:16:00.482Z,12.95
2022-11-17T13:18:33.681Z,9.90
2022-11-17T13:21:02.321Z,12.70
2022-11-17T13:23:33.152Z,14.85
2022-11-17T13:26:16.423Z,15.65
2022-11-17T13:28:45.380Z,11.45
2022-11-17T13:31:23.580Z,15.15
2022-11-17T13:34:18.687Z,11.50
2022-11-17T13:37:00.977Z,13.57
2022-11-17T13:39:29.139Z,12.20
2022-11-17T13:41:58.074Z,17.30
2022-11-17T13:44:28.456Z,14.88
2022-11-17T13:46:56.273Z,13.50
2022-11-17T13:49:37.770Z,18.48
2022-11-17T13:52:37.976Z,15.85
2022-11-17T13:55:15.834Z,12.48
2022-11-17T13:58:30.954Z,15.73
2022-11-17T14:01:00.042Z,22.35
2022-11-17T14:06:08.038Z,17.05
2022-11-17T14:08:38.287Z,11.52
2022-11-17T14:11:24.011Z,12.88
2022-11-17T14:13:58.705Z,15.95
2022-11-17T14:16:42.059Z,21.95
2022-11-17T14:19:15.930Z,13.95
2022-11-17T14:22:29.276Z,13.93
2022-11-17T14:24:59.178Z,17.73
2022-11-17T14:27:32.614Z,14.32
2022-11-17T14:30:00.699Z,15.23
2022-11-17T14:32:28.156Z,17.88
2022-11-17T14:34:56.059Z,23.35
2022-11-17T14:37:25.125Z,24.00
2022-11-17T14:39:52.886Z,18.38
2022-11-17T14:42:20.433Z,19.55
2022-11-17T14:44:48.207Z,21.08
2022-11-17T14:47:15.725Z,23.55
2022-11-17T14:49:43.534Z,18.35
2022-11-17T14:52:11.047Z,19.10
2022-11-17T14:54:38.929Z,15.63
2022-11-17T14:57:06.373Z,22.80
2022-11-17T14:59:34.249Z,19.70
2022-11-17T15:02:02.158Z,22.95
2022-11-17T15:07:17.751Z,25.85
2022-11-17T15:09:45.675Z,23.75
2022-11-17T15:12:13.120Z,24.77
2022-11-17T15:14:40.873Z,23.20
2022-11-17T15:17:12.920Z,21.08
2022-11-17T15:19:42.619Z,23.00
2022-11-17T15:22:12.953Z,21.45
2022-11-17T15:24:41.232Z,27.25
2022-11-17T15:27:09.766Z,29.73
2022-11-17T15:29:37.713Z,31.92
2022-11-17T15:32:06.041Z,30.92
2022-11-17T15:34:35.544Z,42.90
2022-11-17T15:37:03.189Z,46.72
2022-11-17T15:39:38.580Z,46.05
2022-11-17T15:42:06.198Z,72.60
2022-11-17T15:44:34.554Z,101.88
2022-11-17T15:47:02.065Z,83.32
2022-11-17T15:49:29.907Z,65.68
2022-11-17T15:51:57.405Z,55.40
2022-11-17T15:54:25.277Z,49.30
2022-11-17T15:56:52.864Z,49.47
2022-11-17T15:59:20.835Z,48.00
2022-11-17T16:01:48.611Z,61.15
2022-11-17T16:04:16.772Z,47.50
2022-11-17T16:06:47.045Z,53.53
2022-11-17T16:09:15.870Z,59.63
2022-11-17T16:11:44.111Z,66.32
2022-11-17T16:14:12.081Z,70.43
2022-11-17T16:16:40.002Z,70.75
2022-11-17T16:19:08.073Z,66.40
2022-11-17T16:21:35.621Z,66.78
2022-11-17T16:24:03.788Z,62.70
2022-11-17T16:26:31.910Z,48.97
2022-11-17T16:29:04.148Z,52.78
2022-11-17T16:31:35.071Z,54.50
2022-11-17T16:34:06.517Z,61.83
2022-11-17T16:36:37.930Z,51.80
2022-11-17T16:39:08.903Z,46.70
2022-11-17T16:41:40.224Z,42.88
2022-11-17T16:44:14.155Z,43.58
2022-11-17T16:46:44.577Z,48.83
2022-11-17T16:49:18.922Z,49.83
2022-11-17T16:51:52.758Z,46.55
2022-11-17T16:54:21.479Z,48.00
2022-11-17T16:56:49.878Z,57.58
2022-11-17T16:59:18.067Z,57.63
2022-11-17T17:01:46.252Z,55.28
2022-11-17T17:04:17.537Z,53.67
2022-11-17T17:06:45.957Z,56.83
2022-11-17T17:09:15.659Z,54.20
2022-11-17T17:11:43.509Z,56.80
2022-11-17T17:14:14.666Z,53.58
2022-11-17T17:16:42.930Z,40.85
2022-11-17T17:19:13.052Z,56.63
2022-11-17T17:21:41.781Z,46.72
2022-11-17T17:24:10.821Z,44.72
2022-11-17T17:26:39.854Z,52.80
2022-11-17T17:29:08.920Z,43.67
2022-11-17T17:31:39.844Z,50.17
2022-11-17T17:34:10.382Z,43.28
2022-11-17T17:36:38.787Z,47.85
2022-11-17T17:39:07.055Z,48.97
2022-11-17T17:41:40.383Z,62.05
2022-11-17T17:44:13.353Z,56.35
2022-11-17T17:46:42.867Z,57.13
2022-11-17T17:49:11.722Z,50.47
2022-11-17T17:51:44.163Z,46.53
2022-11-17T17:54:21.448Z,45.83
2022-11-17T17:56:49.087Z,43.55
2022-11-17T17:59:17.565Z,44.38
2022-11-17T18:01:49.387Z,50.70
2022-11-17T18:04:17.539Z,50.50
2022-11-17T18:06:52.111Z,62.42
2022-11-17T18:09:21.025Z,50.17
2022-11-17T18:11:51.294Z,51.78
2022-11-17T18:14:25.047Z,51.85
2022-11-17T18:16:53.866Z,50.83
2022-11-17T18:19:24.868Z,57.55
2022-11-17T18:21:56.069Z,59.33
2022-11-17T18:24:24.049Z,60.80
2022-11-17T18:26:54.069Z,61.70
2022-11-17T18:29:22.756Z,61.80
2022-11-17T18:31:50.660Z,71.80
2022-11-17T18:34:24.299Z,87.30
2022-11-17T18:36:55.715Z,85.22
2022-11-17T18:39:24.586Z,96.25
2022-11-17T18:41:52.077Z,95.60
2022-11-17T18:44:20.002Z,95.00
2022-11-17T18:46:48.074Z,98.88
2022-11-17T18:49:16.524Z,97.00
2022-11-17T18:51:44.414Z,87.93
2022-11-17T18:54:13.076Z,84.20
2022-11-17T18:56:40.790Z,69.03
2022-11-17T18:59:11.950Z,68.18
2022-11-17T19:01:43.343Z,65.22
2022-11-17T19:04:15.305Z,60.75
2022-11-17T19:06:42.997Z,59.03
2022-11-17T19:09:11.520Z,61.67
2022-11-17T19:11:39.498Z,61.63
2022-11-17T19:14:08.088Z,67.75
2022-11-17T19:16:44.477Z,70.47
2022-11-17T19:19:14.253Z,71.68
2022-11-17T19:21:42.098Z,64.20
2022-11-17T19:24:09.943Z,73.88
2022-11-17T19:26:37.551Z,74.07
2022-11-17T19:29:15.964Z,67.72
2022-11-17T19:31:45.215Z,64.50
2022-11-17T19:34:14.238Z,61.47
2022-11-17T19:36:42.055Z,61.23
2022-11-17T19:39:13.042Z,59.60
2022-11-17T19:41:40.705Z,66.78
2022-11-17T19:44:09.527Z,68.53
2022-11-17T19:46:37.804Z,66.03
2022-11-17T19:51:37.108Z,68.33
2022-11-17T19:54:08.507Z,58.95
2022-11-17T19:56:36.922Z,65.50
2022-11-17T19:59:06.315Z,70.03
2022-11-17T20:01:34.602Z,65.32
2022-11-17T20:04:02.934Z,70.82
2022-11-17T20:06:37.662Z,66.05
2022-11-17T20:09:11.808Z,66.63
2022-11-17T20:11:39.976Z,54.15
2022-11-17T20:14:08.100Z,49.97
2022-11-17T20:16:36.899Z,45.63
2022-11-17T20:19:05.353Z,50.25
2022-11-17T20:21:33.755Z,51.45
2022-11-17T20:24:02.334Z,61.72
2022-11-17T20:26:33.341Z,57.67
2022-11-17T20:29:02.646Z,56.83
2022-11-17T20:31:35.008Z,55.17
2022-11-17T20:34:05.486Z,50.47
2022-11-17T20:36:34.625Z,45.58
2022-11-17T20:41:33.430Z,43.42
2022-11-17T20:44:03.597Z,34.85
2022-11-17T20:46:31.382Z,35.17
2022-11-17T20:48:59.295Z,35.42
2022-11-17T20:51:27.119Z,27.88
2022-11-17T20:53:55.214Z,26.92
2022-11-17T20:56:22.793Z,27.02
2022-11-17T20:58:53.683Z,24.63
2022-11-17T21:01:24.066Z,25.10
2022-11-17T21:03:52.620Z,25.55
2022-11-17T21:06:24.710Z,24.48
2022-11-17T21:08:53.179Z,27.17
2022-11-17T21:11:42.646Z,24.65
2022-11-17T21:14:13.604Z,23.92
2022-11-17T21:16:45.651Z,24.60
2022-11-17T21:19:14.818Z,26.85
2022-11-17T21:21:44.127Z,21.83
2022-11-17T21:24:12.833Z,20.75
2022-11-17T21:26:42.350Z,23.30
2022-11-17T21:29:10.375Z,31.52
2022-11-17T21:31:38.830Z,37.53
2022-11-17T21:34:07.985Z,34.35
2022-11-17T21:36:36.205Z,40.83
2022-11-17T21:39:04.843Z,38.28
2022-11-17T21:41:37.921Z,35.28
2022-11-17T21:44:05.916Z,43.65
2022-11-17T21:46:36.347Z,38.88
2022-11-17T21:49:05.328Z,37.67
2022-11-17T21:51:35.389Z,42.25
2022-11-17T21:54:09.455Z,44.67
2022-11-17T21:56:38.355Z,46.08
2022-11-17T21:59:12.716Z,44.42
2022-11-17T22:01:40.618Z,38.88
2022-11-17T22:04:10.384Z,40.10
2022-11-17T22:06:39.270Z,47.20
2022-11-17T22:09:07.652Z,43.47
2022-11-17T22:11:44.246Z,42.22
2022-11-17T22:14:25.376Z,48.72
2022-11-17T22:16:59.729Z,46.72
2022-11-17T22:19:58.929Z,40.80
2022-11-17T22:22:42.405Z,40.47
2022-11-17T22:25:43.492Z,42.15
2022-11-17T22:28:28.580Z,46.78
2022-11-17T22:31:33.637Z,42.53
2022-11-17T22:34:09.593Z,48.83
2022-11-17T22:36:57.735Z,44.97
2022-11-17T22:39:35.442Z,50.28
2022-11-17T22:42:20.990Z,50.50
2022-11-17T22:44:53.689Z,48.70
2022-11-17T22:47:21.693Z,49.50
2022-11-17T22:49:49.302Z,46.35
2022-11-17T22:52:17.256Z,36.45
2022-11-17T22:54:44.787Z,40.72
2022-11-17T22:57:12.694Z,44.35
2022-11-17T22:59:40.490Z,41.67
2022-11-17T23:02:08.316Z,43.47
2022-11-17T23:08:08.204Z,40.17
2022-11-17T23:10:41.931Z,46.38
2022-11-17T23:13:11.421Z,45.00
2022-11-17T23:15:44.035Z,42.08
2022-11-17T23:18:14.509Z,43.70
2022-11-17T23:20:43.510Z,41.10
2022-11-17T23:23:11.953Z,44.70
2022-11-17T23:25:41.008Z,42.58
2022-11-17T23:28:10.407Z,43.35
2022-11-17T23:30:38.598Z,44.50
2022-11-17T23:33:06.563Z,44.30
2022-11-17T23:35:34.776Z,44.78
2022-11-17T23:38:02.770Z,43.70
2022-11-17T23:40:30.349Z,38.42
2022-11-17T23:42:58.329Z,45.20
2022-11-17T23:45:25.935Z,38.53
2022-11-17T23:47:54.045Z,45.90
2022-11-17T23:50:21.524Z,40.88
2022-11-17T23:52:49.346Z,37.92
2022-11-17T23:55:16.866Z,38.35
2022-11-17T23:57:44.794Z,44.97
